sensor_id;sensor_type;location;lat;lon;timestamp;P1;durP1;ratioP1;P2;durP2;ratioP2
14665;SDS011;7420;53.574;10.040;2023-03-20T00:02:00;51.15;;;22.60;;
14665;SDS011;7420;53.574;10.040;2023-03-20T00:04:26;61.22;;;26.23;;
14665;SDS011;7420;53.574;10.040;2023-03-20T00:06:58;50.90;;;21.70;;
14665;SDS011;7420;53.574;10.040;2023-03-20T00:09:24;59.15;;;26.35;;
14665;SDS011;7420;53.574;10.040;2023-03-20T00:11:53;57.20;;;26.73;;
14665;SDS011;7420;53.574;10.040;2023-03-20T00:14:20;54.97;;;23.15;;
14665;SDS011;7420;53.574;10.040;2023-03-20T00:16:48;56.30;;;25.38;;
14665;SDS011;7420;53.574;10.040;2023-03-20T00:19:24;59.15;;;24.17;;
14665;SDS011;7420;53.574;10.040;2023-03-20T00:21:52;61.47;;;25.52;;
14665;SDS011;7420;53.574;10.040;2023-03-20T00:24:18;57.95;;;25.80;;
14665;SDS011;7420;53.574;10.040;2023-03-20T00:26:45;63.10;;;27.05;;
14665;SDS011;7420;53.574;10.040;2023-03-20T00:29:21;58.55;;;26.15;;
14665;SDS011;7420;53.574;10.040;2023-03-20T00:31:49;60.30;;;24.42;;
14665;SDS011;7420;53.574;10.040;2023-03-20T00:34:20;61.45;;;24.52;;
14665;SDS011;7420;53.574;10.040;2023-03-20T00:36:47;55.33;;;24.55;;
14665;SDS011;7420;53.574;10.040;2023-03-20T00:39:13;57.63;;;23.33;;
14665;SDS011;7420;53.574;10.040;2023-03-20T00:41:43;51.58;;;24.48;;
14665;SDS011;7420;53.574;10.040;2023-03-20T00:46:55;57.42;;;25.85;;
14665;SDS011;7420;53.574;10.040;2023-03-20T00:49:25;59.85;;;26.63;;
14665;SDS011;7420;53.574;10.040;2023-03-20T00:51:55;54.13;;;22.52;;
14665;SDS011;7420;53.574;10.040;2023-03-20T00:54:20;53.17;;;24.17;;
14665;SDS011;7420;53.574;10.040;2023-03-20T00:59:35;56.30;;;25.10;;
14665;SDS011;7420;53.574;10.040;2023-03-20T01:02:04;59.70;;;24.75;;
14665;SDS011;7420;53.574;10.040;2023-03-20T01:04:36;49.72;;;23.25;;
14665;SDS011;7420;53.574;10.040;2023-03-20T01:07:06;57.83;;;25.65;;
14665;SDS011;7420;53.574;10.040;2023-03-20T01:09:36;60.63;;;24.63;;
14665;SDS011;7420;53.574;10.040;2023-03-20T01:12:02;54.88;;;24.70;;
14665;SDS011;7420;53.574;10.040;2023-03-20T01:14:28;50.95;;;22.08;;
14665;SDS011;7420;53.574;10.040;2023-03-20T01:16:54;49.67;;;23.25;;
14665;SDS011;7420;53.574;10.040;2023-03-20T01:19:19;49.50;;;23.75;;
14665;SDS011;7420;53.574;10.040;2023-03-20T01:21:45;50.65;;;24.67;;
14665;SDS011;7420;53.574;10.040;2023-03-20T01:24:11;52.60;;;22.30;;
14665;SDS011;7420;53.574;10.040;2023-03-20T01:26:38;53.17;;;22.65;;
14665;SDS011;7420;53.574;10.040;2023-03-20T01:31:41;54.53;;;22.02;;
14665;SDS011;7420;53.574;10.040;2023-03-20T01:34:08;55.80;;;23.42;;
14665;SDS011;7420;53.574;10.040;2023-03-20T01:36:34;55.55;;;23.95;;
14665;SDS011;7420;53.574;10.040;2023-03-20T01:39:01;61.55;;;26.17;;
14665;SDS011;7420;53.574;10.040;2023-03-20T01:41:27;52.88;;;24.38;;
14665;SDS011;7420;53.574;10.040;2023-03-20T01:43:53;50.72;;;24.48;;
14665;SDS011;7420;53.574;10.040;2023-03-20T01:46:27;50.53;;;23.55;;
14665;SDS011;7420;53.574;10.040;2023-03-20T01:51:43;52.42;;;22.70;;
14665;SDS011;7420;53.574;10.040;2023-03-20T01:54:12;56.13;;;24.60;;
14665;SDS011;7420;53.574;10.040;2023-03-20T01:59:44;52.40;;;23.95;;
14665;SDS011;7420;53.574;10.040;2023-03-20T02:02:14;50.53;;;22.30;;
14665;SDS011;7420;53.574;10.040;2023-03-20T02:04:45;56.00;;;21.58;;
14665;SDS011;7420;53.574;10.040;2023-03-20T02:07:14;51.30;;;20.85;;
14665;SDS011;7420;53.574;10.040;2023-03-20T02:09:42;63.58;;;24.90;;
14665;SDS011;7420;53.574;10.040;2023-03-20T02:12:07;58.08;;;23.52;;
14665;SDS011;7420;53.574;10.040;2023-03-20T02:14:33;53.28;;;24.85;;
14665;SDS011;7420;53.574;10.040;2023-03-20T02:17:00;49.15;;;22.25;;
14665;SDS011;7420;53.574;10.040;2023-03-20T02:19:30;50.85;;;23.05;;
14665;SDS011;7420;53.574;10.040;2023-03-20T02:22:09;59.10;;;25.75;;
14665;SDS011;7420;53.574;10.040;2023-03-20T02:27:38;50.55;;;22.13;;
14665;SDS011;7420;53.574;10.040;2023-03-20T02:39:00;61.72;;;23.23;;
14665;SDS011;7420;53.574;10.040;2023-03-20T02:44:45;57.67;;;22.10;;
14665;SDS011;7420;53.574;10.040;2023-03-20T02:47:20;45.53;;;20.00;;
14665;SDS011;7420;53.574;10.040;2023-03-20T02:52:38;44.95;;;19.83;;
14665;SDS011;7420;53.574;10.040;2023-03-20T03:00:33;35.05;;;15.90;;
14665;SDS011;7420;53.574;10.040;2023-03-20T03:03:06;36.85;;;16.80;;
14665;SDS011;7420;53.574;10.040;2023-03-20T03:05:37;34.28;;;15.38;;
14665;SDS011;7420;53.574;10.040;2023-03-20T03:08:10;34.25;;;15.27;;
14665;SDS011;7420;53.574;10.040;2023-03-20T03:10:40;33.13;;;13.32;;
14665;SDS011;7420;53.574;10.040;2023-03-20T03:13:11;26.50;;;13.15;;
14665;SDS011;7420;53.574;10.040;2023-03-20T03:15:40;34.13;;;14.35;;
14665;SDS011;7420;53.574;10.040;2023-03-20T03:18:11;29.70;;;13.07;;
14665;SDS011;7420;53.574;10.040;2023-03-20T03:20:40;25.02;;;11.45;;
14665;SDS011;7420;53.574;10.040;2023-03-20T03:23:09;26.17;;;11.35;;
14665;SDS011;7420;53.574;10.040;2023-03-20T03:25:44;27.33;;;11.75;;
14665;SDS011;7420;53.574;10.040;2023-03-20T03:28:20;23.13;;;11.75;;
14665;SDS011;7420;53.574;10.040;2023-03-20T03:31:08;20.63;;;9.30;;
14665;SDS011;7420;53.574;10.040;2023-03-20T03:33:38;26.55;;;11.00;;
14665;SDS011;7420;53.574;10.040;2023-03-20T03:38:55;20.80;;;9.57;;
14665;SDS011;7420;53.574;10.040;2023-03-20T03:41:33;20.55;;;9.70;;
14665;SDS011;7420;53.574;10.040;2023-03-20T03:47:31;17.45;;;8.77;;
14665;SDS011;7420;53.574;10.040;2023-03-20T03:50:03;17.27;;;9.10;;
14665;SDS011;7420;53.574;10.040;2023-03-20T03:52:34;19.38;;;9.40;;
14665;SDS011;7420;53.574;10.040;2023-03-20T03:55:11;19.80;;;9.38;;
14665;SDS011;7420;53.574;10.040;2023-03-20T03:57:41;18.40;;;9.15;;
14665;SDS011;7420;53.574;10.040;2023-03-20T04:00:16;20.83;;;10.63;;
14665;SDS011;7420;53.574;10.040;2023-03-20T04:02:44;22.27;;;9.25;;
14665;SDS011;7420;53.574;10.040;2023-03-20T04:05:12;16.20;;;8.57;;
14665;SDS011;7420;53.574;10.040;2023-03-20T04:07:42;19.60;;;9.40;;
14665;SDS011;7420;53.574;10.040;2023-03-20T04:10:09;18.40;;;8.43;;
14665;SDS011;7420;53.574;10.040;2023-03-20T04:12:36;19.45;;;9.32;;
14665;SDS011;7420;53.574;10.040;2023-03-20T04:15:03;20.85;;;9.10;;
14665;SDS011;7420;53.574;10.040;2023-03-20T04:17:30;18.02;;;8.80;;
14665;SDS011;7420;53.574;10.040;2023-03-20T04:19:56;18.33;;;8.68;;
14665;SDS011;7420;53.574;10.040;2023-03-20T04:22:21;26.25;;;10.57;;
14665;SDS011;7420;53.574;10.040;2023-03-20T04:24:47;18.85;;;9.63;;
14665;SDS011;7420;53.574;10.040;2023-03-20T04:27:13;21.33;;;11.20;;
14665;SDS011;7420;53.574;10.040;2023-03-20T04:29:38;19.42;;;9.57;;
14665;SDS011;7420;53.574;10.040;2023-03-20T04:32:04;21.58;;;9.23;;
14665;SDS011;7420;53.574;10.040;2023-03-20T04:34:30;24.08;;;11.48;;
14665;SDS011;7420;53.574;10.040;2023-03-20T04:36:56;21.05;;;9.32;;
14665;SDS011;7420;53.574;10.040;2023-03-20T04:39:21;23.48;;;10.10;;
14665;SDS011;7420;53.574;10.040;2023-03-20T04:41:47;20.00;;;10.23;;
14665;SDS011;7420;53.574;10.040;2023-03-20T04:44:12;22.95;;;9.95;;
14665;SDS011;7420;53.574;10.040;2023-03-20T04:46:41;25.25;;;11.30;;
14665;SDS011;7420;53.574;10.040;2023-03-20T04:49:06;18.55;;;9.50;;
14665;SDS011;7420;53.574;10.040;2023-03-20T04:51:35;21.63;;;11.15;;
14665;SDS011;7420;53.574;10.040;2023-03-20T04:54:04;18.50;;;9.60;;
14665;SDS011;7420;53.574;10.040;2023-03-20T04:56:29;15.93;;;8.82;;
14665;SDS011;7420;53.574;10.040;2023-03-20T04:58:55;18.20;;;8.57;;
14665;SDS011;7420;53.574;10.040;2023-03-20T05:01:20;14.45;;;8.00;;
14665;SDS011;7420;53.574;10.040;2023-03-20T05:03:47;13.65;;;7.68;;
14665;SDS011;7420;53.574;10.040;2023-03-20T05:06:13;13.18;;;6.55;;
14665;SDS011;7420;53.574;10.040;2023-03-20T05:08:38;13.75;;;7.22;;
14665;SDS011;7420;53.574;10.040;2023-03-20T05:11:04;14.23;;;7.63;;
14665;SDS011;7420;53.574;10.040;2023-03-20T05:13:30;16.17;;;7.75;;
14665;SDS011;7420;53.574;10.040;2023-03-20T05:15:55;16.17;;;8.45;;
14665;SDS011;7420;53.574;10.040;2023-03-20T05:18:21;15.05;;;7.80;;
14665;SDS011;7420;53.574;10.040;2023-03-20T05:20:48;15.30;;;8.63;;
14665;SDS011;7420;53.574;10.040;2023-03-20T05:23:14;15.55;;;9.18;;
14665;SDS011;7420;53.574;10.040;2023-03-20T05:25:40;15.95;;;9.07;;
14665;SDS011;7420;53.574;10.040;2023-03-20T05:28:05;17.40;;;10.05;;
14665;SDS011;7420;53.574;10.040;2023-03-20T05:30:31;14.50;;;8.73;;
14665;SDS011;7420;53.574;10.040;2023-03-20T05:32:56;17.20;;;9.02;;
14665;SDS011;7420;53.574;10.040;2023-03-20T05:35:22;19.55;;;10.13;;
14665;SDS011;7420;53.574;10.040;2023-03-20T05:37:47;16.35;;;9.68;;
14665;SDS011;7420;53.574;10.040;2023-03-20T05:40:14;16.58;;;10.05;;
14665;SDS011;7420;53.574;10.040;2023-03-20T05:42:47;17.02;;;9.70;;
14665;SDS011;7420;53.574;10.040;2023-03-20T05:45:16;17.45;;;10.45;;
14665;SDS011;7420;53.574;10.040;2023-03-20T05:47:51;18.33;;;11.07;;
14665;SDS011;7420;53.574;10.040;2023-03-20T05:50:16;18.42;;;10.25;;
14665;SDS011;7420;53.574;10.040;2023-03-20T05:52:45;18.30;;;10.00;;
14665;SDS011;7420;53.574;10.040;2023-03-20T05:55:12;21.35;;;11.82;;
14665;SDS011;7420;53.574;10.040;2023-03-20T05:57:47;19.95;;;10.10;;
14665;SDS011;7420;53.574;10.040;2023-03-20T06:00:13;19.38;;;10.75;;
14665;SDS011;7420;53.574;10.040;2023-03-20T06:02:39;18.45;;;10.07;;
14665;SDS011;7420;53.574;10.040;2023-03-20T06:05:05;17.85;;;9.98;;
14665;SDS011;7420;53.574;10.040;2023-03-20T06:07:31;17.30;;;9.95;;
14665;SDS011;7420;53.574;10.040;2023-03-20T06:09:56;17.85;;;9.73;;
14665;SDS011;7420;53.574;10.040;2023-03-20T06:12:21;17.58;;;9.68;;
14665;SDS011;7420;53.574;10.040;2023-03-20T06:14:47;17.77;;;10.02;;
14665;SDS011;7420;53.574;10.040;2023-03-20T06:17:12;13.55;;;8.65;;
14665;SDS011;7420;53.574;10.040;2023-03-20T06:19:38;15.93;;;9.25;;
14665;SDS011;7420;53.574;10.040;2023-03-20T06:22:04;14.73;;;8.27;;
14665;SDS011;7420;53.574;10.040;2023-03-20T06:24:30;17.50;;;8.73;;
14665;SDS011;7420;53.574;10.040;2023-03-20T06:26:55;16.80;;;8.27;;
14665;SDS011;7420;53.574;10.040;2023-03-20T06:29:21;15.98;;;8.15;;
14665;SDS011;7420;53.574;10.040;2023-03-20T06:31:46;12.25;;;7.28;;
14665;SDS011;7420;53.574;10.040;2023-03-20T06:34:12;15.65;;;7.60;;
14665;SDS011;7420;53.574;10.040;2023-03-20T06:36:38;16.80;;;8.52;;
14665;SDS011;7420;53.574;10.040;2023-03-20T06:39:03;18.45;;;8.63;;
14665;SDS011;7420;53.574;10.040;2023-03-20T06:41:29;13.60;;;7.10;;
14665;SDS011;7420;53.574;10.040;2023-03-20T06:43:54;15.82;;;7.93;;
14665;SDS011;7420;53.574;10.040;2023-03-20T06:46:20;12.68;;;7.38;;
14665;SDS011;7420;53.574;10.040;2023-03-20T06:48:46;13.68;;;7.70;;
14665;SDS011;7420;53.574;10.040;2023-03-20T06:51:12;12.60;;;6.40;;
14665;SDS011;7420;53.574;10.040;2023-03-20T06:53:38;12.60;;;6.53;;
14665;SDS011;7420;53.574;10.040;2023-03-20T06:56:05;11.50;;;7.43;;
14665;SDS011;7420;53.574;10.040;2023-03-20T06:58:32;10.15;;;5.35;;
14665;SDS011;7420;53.574;10.040;2023-03-20T07:00:57;13.43;;;6.65;;
14665;SDS011;7420;53.574;10.040;2023-03-20T07:03:22;9.68;;;5.32;;
14665;SDS011;7420;53.574;10.040;2023-03-20T07:05:48;11.63;;;6.03;;
14665;SDS011;7420;53.574;10.040;2023-03-20T07:08:14;13.23;;;6.00;;
14665;SDS011;7420;53.574;10.040;2023-03-20T07:10:43;14.95;;;6.10;;
14665;SDS011;7420;53.574;10.040;2023-03-20T07:13:09;10.82;;;7.15;;
14665;SDS011;7420;53.574;10.040;2023-03-20T07:15:34;11.93;;;6.50;;
14665;SDS011;7420;53.574;10.040;2023-03-20T07:18:00;11.10;;;6.20;;
14665;SDS011;7420;53.574;10.040;2023-03-20T07:20:26;12.57;;;6.97;;
14665;SDS011;7420;53.574;10.040;2023-03-20T07:22:51;13.80;;;6.80;;
14665;SDS011;7420;53.574;10.040;2023-03-20T07:25:17;12.50;;;7.00;;
14665;SDS011;7420;53.574;10.040;2023-03-20T07:27:43;13.25;;;7.47;;
14665;SDS011;7420;53.574;10.040;2023-03-20T07:30:14;10.75;;;6.38;;
14665;SDS011;7420;53.574;10.040;2023-03-20T07:32:40;10.40;;;6.63;;
14665;SDS011;7420;53.574;10.040;2023-03-20T07:35:06;11.48;;;6.18;;
14665;SDS011;7420;53.574;10.040;2023-03-20T07:37:33;11.25;;;6.28;;
14665;SDS011;7420;53.574;10.040;2023-03-20T07:39:58;14.10;;;6.82;;
14665;SDS011;7420;53.574;10.040;2023-03-20T07:42:29;11.07;;;6.30;;
14665;SDS011;7420;53.574;10.040;2023-03-20T07:44:57;13.75;;;6.70;;
14665;SDS011;7420;53.574;10.040;2023-03-20T07:47:23;13.38;;;6.95;;
14665;SDS011;7420;53.574;10.040;2023-03-20T07:49:48;10.30;;;6.28;;
14665;SDS011;7420;53.574;10.040;2023-03-20T07:52:14;10.65;;;6.63;;
14665;SDS011;7420;53.574;10.040;2023-03-20T07:54:41;9.95;;;6.40;;
14665;SDS011;7420;53.574;10.040;2023-03-20T07:57:06;10.32;;;7.13;;
14665;SDS011;7420;53.574;10.040;2023-03-20T07:59:32;12.00;;;6.60;;
14665;SDS011;7420;53.574;10.040;2023-03-20T08:01:57;12.88;;;6.43;;
14665;SDS011;7420;53.574;10.040;2023-03-20T08:04:23;11.77;;;6.80;;
14665;SDS011;7420;53.574;10.040;2023-03-20T08:06:48;12.02;;;5.95;;
14665;SDS011;7420;53.574;10.040;2023-03-20T08:09:14;10.60;;;6.60;;
14665;SDS011;7420;53.574;10.040;2023-03-20T08:11:40;11.68;;;6.25;;
14665;SDS011;7420;53.574;10.040;2023-03-20T08:14:06;9.27;;;5.95;;
14665;SDS011;7420;53.574;10.040;2023-03-20T08:16:31;10.40;;;6.65;;
14665;SDS011;7420;53.574;10.040;2023-03-20T08:18:57;12.27;;;6.32;;
14665;SDS011;7420;53.574;10.040;2023-03-20T08:21:31;9.02;;;5.88;;
14665;SDS011;7420;53.574;10.040;2023-03-20T08:23:57;11.88;;;6.03;;
14665;SDS011;7420;53.574;10.040;2023-03-20T08:26:23;12.43;;;6.78;;
14665;SDS011;7420;53.574;10.040;2023-03-20T08:28:49;12.88;;;6.75;;
14665;SDS011;7420;53.574;10.040;2023-03-20T08:31:15;10.35;;;5.75;;
14665;SDS011;7420;53.574;10.040;2023-03-20T08:33:42;12.05;;;6.43;;
14665;SDS011;7420;53.574;10.040;2023-03-20T08:36:08;9.85;;;5.60;;
14665;SDS011;7420;53.574;10.040;2023-03-20T08:38:34;11.23;;;6.47;;
14665;SDS011;7420;53.574;10.040;2023-03-20T08:41:00;11.52;;;5.55;;
14665;SDS011;7420;53.574;10.040;2023-03-20T08:43:28;9.05;;;5.45;;
14665;SDS011;7420;53.574;10.040;2023-03-20T08:45:53;9.40;;;5.88;;
14665;SDS011;7420;53.574;10.040;2023-03-20T08:48:19;8.98;;;5.53;;
14665;SDS011;7420;53.574;10.040;2023-03-20T08:50:45;10.88;;;6.15;;
14665;SDS011;7420;53.574;10.040;2023-03-20T08:53:10;13.20;;;6.03;;
14665;SDS011;7420;53.574;10.040;2023-03-20T08:55:36;11.38;;;6.03;;
14665;SDS011;7420;53.574;10.040;2023-03-20T08:58:02;12.90;;;7.90;;
14665;SDS011;7420;53.574;10.040;2023-03-20T09:00:27;10.20;;;5.85;;
14665;SDS011;7420;53.574;10.040;2023-03-20T09:02:53;11.40;;;7.40;;
14665;SDS011;7420;53.574;10.040;2023-03-20T09:05:19;10.27;;;5.82;;
14665;SDS011;7420;53.574;10.040;2023-03-20T09:07:44;11.52;;;6.13;;
14665;SDS011;7420;53.574;10.040;2023-03-20T09:10:13;10.65;;;6.53;;
14665;SDS011;7420;53.574;10.040;2023-03-20T09:12:39;11.77;;;6.65;;
14665;SDS011;7420;53.574;10.040;2023-03-20T09:15:05;14.00;;;6.93;;
14665;SDS011;7420;53.574;10.040;2023-03-20T09:17:31;9.75;;;6.07;;
14665;SDS011;7420;53.574;10.040;2023-03-20T09:19:56;13.63;;;6.78;;
14665;SDS011;7420;53.574;10.040;2023-03-20T09:22:22;13.48;;;6.57;;
14665;SDS011;7420;53.574;10.040;2023-03-20T09:24:48;10.93;;;6.32;;
14665;SDS011;7420;53.574;10.040;2023-03-20T09:27:13;10.20;;;6.38;;
14665;SDS011;7420;53.574;10.040;2023-03-20T09:29:42;11.05;;;6.20;;
14665;SDS011;7420;53.574;10.040;2023-03-20T09:32:10;9.30;;;5.57;;
14665;SDS011;7420;53.574;10.040;2023-03-20T09:34:42;8.88;;;5.53;;
14665;SDS011;7420;53.574;10.040;2023-03-20T09:37:07;8.60;;;5.57;;
14665;SDS011;7420;53.574;10.040;2023-03-20T09:39:36;10.52;;;6.18;;
14665;SDS011;7420;53.574;10.040;2023-03-20T09:53:10;10.20;;;6.32;;
14665;SDS011;7420;53.574;10.040;2023-03-20T09:55:42;12.03;;;6.50;;
14665;SDS011;7420;53.574;10.040;2023-03-20T09:58:28;9.77;;;6.85;;
14665;SDS011;7420;53.574;10.040;2023-03-20T10:00:58;10.68;;;6.63;;
14665;SDS011;7420;53.574;10.040;2023-03-20T10:03:32;11.48;;;7.70;;
14665;SDS011;7420;53.574;10.040;2023-03-20T10:06:11;12.43;;;6.80;;
14665;SDS011;7420;53.574;10.040;2023-03-20T10:08:38;11.50;;;6.50;;
14665;SDS011;7420;53.574;10.040;2023-03-20T10:11:05;10.77;;;6.40;;
14665;SDS011;7420;53.574;10.040;2023-03-20T10:13:54;13.52;;;7.00;;
14665;SDS011;7420;53.574;10.040;2023-03-20T10:19:22;9.77;;;6.88;;
14665;SDS011;7420;53.574;10.040;2023-03-20T10:22:00;10.85;;;6.30;;
14665;SDS011;7420;53.574;10.040;2023-03-20T10:27:37;16.08;;;7.57;;
14665;SDS011;7420;53.574;10.040;2023-03-20T10:30:17;15.90;;;8.05;;
14665;SDS011;7420;53.574;10.040;2023-03-20T10:35:44;13.80;;;6.20;;
14665;SDS011;7420;53.574;10.040;2023-03-20T10:38:25;12.45;;;7.93;;
14665;SDS011;7420;53.574;10.040;2023-03-20T10:40:56;11.35;;;6.90;;
14665;SDS011;7420;53.574;10.040;2023-03-20T10:43:24;15.82;;;7.25;;
14665;SDS011;7420;53.574;10.040;2023-03-20T10:48:24;12.52;;;7.93;;
14665;SDS011;7420;53.574;10.040;2023-03-20T10:50:58;12.80;;;7.32;;
14665;SDS011;7420;53.574;10.040;2023-03-20T10:55:58;12.52;;;7.40;;
14665;SDS011;7420;53.574;10.040;2023-03-20T10:58:27;10.75;;;7.45;;
14665;SDS011;7420;53.574;10.040;2023-03-20T11:00:57;10.10;;;7.07;;
14665;SDS011;7420;53.574;10.040;2023-03-20T11:03:27;11.57;;;6.63;;
14665;SDS011;7420;53.574;10.040;2023-03-20T11:06:09;13.30;;;8.02;;
14665;SDS011;7420;53.574;10.040;2023-03-20T11:08:42;10.80;;;6.85;;
14665;SDS011;7420;53.574;10.040;2023-03-20T11:11:12;12.02;;;7.07;;
14665;SDS011;7420;53.574;10.040;2023-03-20T11:13:40;10.90;;;7.20;;
14665;SDS011;7420;53.574;10.040;2023-03-20T11:16:17;13.70;;;7.47;;
14665;SDS011;7420;53.574;10.040;2023-03-20T11:18:46;14.02;;;6.95;;
14665;SDS011;7420;53.574;10.040;2023-03-20T11:21:17;8.50;;;6.53;;
14665;SDS011;7420;53.574;10.040;2023-03-20T11:23:45;13.20;;;6.97;;
14665;SDS011;7420;53.574;10.040;2023-03-20T11:26:15;12.57;;;6.53;;
14665;SDS011;7420;53.574;10.040;2023-03-20T11:28:56;12.70;;;6.20;;
14665;SDS011;7420;53.574;10.040;2023-03-20T11:31:24;12.95;;;6.93;;
14665;SDS011;7420;53.574;10.040;2023-03-20T11:34:18;14.80;;;7.38;;
14665;SDS011;7420;53.574;10.040;2023-03-20T11:39:25;10.95;;;6.50;;
14665;SDS011;7420;53.574;10.040;2023-03-20T11:41:54;11.52;;;6.07;;
14665;SDS011;7420;53.574;10.040;2023-03-20T11:46:53;13.15;;;6.95;;
14665;SDS011;7420;53.574;10.040;2023-03-20T11:49:22;10.85;;;6.93;;
14665;SDS011;7420;53.574;10.040;2023-03-20T11:51:49;19.58;;;6.60;;
14665;SDS011;7420;53.574;10.040;2023-03-20T11:54:20;16.38;;;5.97;;
14665;SDS011;7420;53.574;10.040;2023-03-20T11:56:51;10.40;;;6.53;;
14665;SDS011;7420;53.574;10.040;2023-03-20T11:59:18;11.55;;;6.05;;
14665;SDS011;7420;53.574;10.040;2023-03-20T12:01:48;14.85;;;6.32;;
14665;SDS011;7420;53.574;10.040;2023-03-20T12:12:33;14.57;;;7.20;;
14665;SDS011;7420;53.574;10.040;2023-03-20T12:25:49;9.95;;;5.97;;
14665;SDS011;7420;53.574;10.040;2023-03-20T12:28:25;9.98;;;7.03;;
14665;SDS011;7420;53.574;10.040;2023-03-20T12:36:17;10.38;;;5.93;;
14665;SDS011;7420;53.574;10.040;2023-03-20T12:38:51;9.73;;;6.63;;
14665;SDS011;7420;53.574;10.040;2023-03-20T12:43:54;9.40;;;6.13;;
14665;SDS011;7420;53.574;10.040;2023-03-20T12:46:42;13.13;;;6.05;;
14665;SDS011;7420;53.574;10.040;2023-03-20T12:57:22;9.50;;;6.25;;
14665;SDS011;7420;53.574;10.040;2023-03-20T13:05:04;14.43;;;6.80;;
14665;SDS011;7420;53.574;10.040;2023-03-20T13:10:30;8.35;;;5.03;;
14665;SDS011;7420;53.574;10.040;2023-03-20T13:13:18;9.43;;;6.03;;
14665;SDS011;7420;53.574;10.040;2023-03-20T13:15:50;10.95;;;5.85;;
14665;SDS011;7420;53.574;10.040;2023-03-20T13:18:29;13.43;;;6.55;;
14665;SDS011;7420;53.574;10.040;2023-03-20T13:20:56;6.90;;;5.05;;
14665;SDS011;7420;53.574;10.040;2023-03-20T13:24:29;10.60;;;6.10;;
14665;SDS011;7420;53.574;10.040;2023-03-20T13:26:36;10.00;;;5.30;;
14665;SDS011;7420;53.574;10.040;2023-03-20T13:29:14;11.00;;;6.22;;
14665;SDS011;7420;53.574;10.040;2023-03-20T13:32:02;9.43;;;6.03;;
14665;SDS011;7420;53.574;10.040;2023-03-20T13:35:27;11.30;;;5.80;;
14665;SDS011;7420;53.574;10.040;2023-03-20T13:37:54;13.93;;;5.80;;
14665;SDS011;7420;53.574;10.040;2023-03-20T13:40:24;11.57;;;6.50;;
14665;SDS011;7420;53.574;10.040;2023-03-20T13:43:02;8.27;;;4.30;;
14665;SDS011;7420;53.574;10.040;2023-03-20T13:45:40;10.25;;;6.22;;
14665;SDS011;7420;53.574;10.040;2023-03-20T13:53:31;10.32;;;5.47;;
14665;SDS011;7420;53.574;10.040;2023-03-20T14:01:44;10.07;;;5.88;;
14665;SDS011;7420;53.574;10.040;2023-03-20T14:04:17;9.40;;;5.50;;
14665;SDS011;7420;53.574;10.040;2023-03-20T14:06:56;10.85;;;5.80;;
14665;SDS011;7420;53.574;10.040;2023-03-20T14:09:30;11.82;;;5.80;;
14665;SDS011;7420;53.574;10.040;2023-03-20T14:12:04;10.90;;;5.55;;
14665;SDS011;7420;53.574;10.040;2023-03-20T14:14:51;13.50;;;4.57;;
14665;SDS011;7420;53.574;10.040;2023-03-20T14:17:20;8.73;;;5.43;;
14665;SDS011;7420;53.574;10.040;2023-03-20T14:19:50;12.20;;;6.43;;
14665;SDS011;7420;53.574;10.040;2023-03-20T14:22:18;10.65;;;4.78;;
14665;SDS011;7420;53.574;10.040;2023-03-20T14:24:49;12.27;;;5.90;;
14665;SDS011;7420;53.574;10.040;2023-03-20T14:27:19;9.00;;;5.07;;
14665;SDS011;7420;53.574;10.040;2023-03-20T14:29:45;8.30;;;5.38;;
14665;SDS011;7420;53.574;10.040;2023-03-20T14:34:44;8.55;;;5.22;;
14665;SDS011;7420;53.574;10.040;2023-03-20T14:48:32;8.48;;;5.63;;
14665;SDS011;7420;53.574;10.040;2023-03-20T14:51:12;9.00;;;5.07;;
14665;SDS011;7420;53.574;10.040;2023-03-20T14:56:45;9.88;;;5.35;;
14665;SDS011;7420;53.574;10.040;2023-03-20T14:59:12;11.05;;;6.13;;
14665;SDS011;7420;53.574;10.040;2023-03-20T15:06:46;9.63;;;5.30;;
14665;SDS011;7420;53.574;10.040;2023-03-20T15:09:15;10.82;;;5.03;;
14665;SDS011;7420;53.574;10.040;2023-03-20T15:11:43;11.70;;;6.30;;
14665;SDS011;7420;53.574;10.040;2023-03-20T15:14:12;9.75;;;5.47;;
14665;SDS011;7420;53.574;10.040;2023-03-20T15:16:58;9.55;;;5.20;;
14665;SDS011;7420;53.574;10.040;2023-03-20T15:19:25;10.95;;;5.75;;
14665;SDS011;7420;53.574;10.040;2023-03-20T15:21:51;10.73;;;6.25;;
14665;SDS011;7420;53.574;10.040;2023-03-20T15:24:20;11.27;;;5.80;;
14665;SDS011;7420;53.574;10.040;2023-03-20T15:26:52;10.98;;;6.18;;
14665;SDS011;7420;53.574;10.040;2023-03-20T15:29:19;18.42;;;7.18;;
14665;SDS011;7420;53.574;10.040;2023-03-20T15:31:46;10.63;;;5.80;;
14665;SDS011;7420;53.574;10.040;2023-03-20T15:34:18;13.13;;;6.22;;
14665;SDS011;7420;53.574;10.040;2023-03-20T15:36:46;13.38;;;6.95;;
14665;SDS011;7420;53.574;10.040;2023-03-20T15:41:38;10.43;;;6.15;;
14665;SDS011;7420;53.574;10.040;2023-03-20T15:46:53;9.40;;;5.53;;
14665;SDS011;7420;53.574;10.040;2023-03-20T15:49:23;10.18;;;7.07;;
14665;SDS011;7420;53.574;10.040;2023-03-20T15:51:49;10.38;;;6.20;;
14665;SDS011;7420;53.574;10.040;2023-03-20T15:54:17;11.13;;;6.28;;
14665;SDS011;7420;53.574;10.040;2023-03-20T15:56:44;13.73;;;7.47;;
14665;SDS011;7420;53.574;10.040;2023-03-20T15:59:12;11.48;;;5.82;;
14665;SDS011;7420;53.574;10.040;2023-03-20T16:01:41;10.65;;;6.93;;
14665;SDS011;7420;53.574;10.040;2023-03-20T16:04:08;13.70;;;7.55;;
14665;SDS011;7420;53.574;10.040;2023-03-20T16:06:43;10.60;;;6.38;;
14665;SDS011;7420;53.574;10.040;2023-03-20T16:09:11;10.30;;;6.37;;
14665;SDS011;7420;53.574;10.040;2023-03-20T16:11:39;11.05;;;7.22;;
14665;SDS011;7420;53.574;10.040;2023-03-20T16:14:09;11.77;;;6.82;;
14665;SDS011;7420;53.574;10.040;2023-03-20T16:16:38;11.80;;;7.60;;
14665;SDS011;7420;53.574;10.040;2023-03-20T16:19:09;13.65;;;7.18;;
14665;SDS011;7420;53.574;10.040;2023-03-20T16:21:37;13.15;;;7.57;;
14665;SDS011;7420;53.574;10.040;2023-03-20T16:24:08;12.65;;;7.45;;
14665;SDS011;7420;53.574;10.040;2023-03-20T16:26:42;11.63;;;8.07;;
14665;SDS011;7420;53.574;10.040;2023-03-20T16:29:10;17.73;;;8.35;;
14665;SDS011;7420;53.574;10.040;2023-03-20T16:31:40;13.25;;;7.57;;
14665;SDS011;7420;53.574;10.040;2023-03-20T16:34:32;14.82;;;8.18;;
14665;SDS011;7420;53.574;10.040;2023-03-20T16:37:00;12.55;;;7.82;;
14665;SDS011;7420;53.574;10.040;2023-03-20T16:39:30;13.95;;;8.88;;
14665;SDS011;7420;53.574;10.040;2023-03-20T16:42:01;14.63;;;9.13;;
14665;SDS011;7420;53.574;10.040;2023-03-20T16:44:32;12.15;;;8.40;;
14665;SDS011;7420;53.574;10.040;2023-03-20T16:47:17;15.07;;;8.40;;
14665;SDS011;7420;53.574;10.040;2023-03-20T16:52:35;14.23;;;8.75;;
14665;SDS011;7420;53.574;10.040;2023-03-20T16:55:11;16.52;;;8.48;;
14665;SDS011;7420;53.574;10.040;2023-03-20T16:57:39;11.65;;;8.85;;
14665;SDS011;7420;53.574;10.040;2023-03-20T17:00:07;13.65;;;8.60;;
14665;SDS011;7420;53.574;10.040;2023-03-20T17:02:48;17.17;;;9.20;;
14665;SDS011;7420;53.574;10.040;2023-03-20T17:05:17;17.08;;;9.57;;
14665;SDS011;7420;53.574;10.040;2023-03-20T17:07:48;17.65;;;10.60;;
14665;SDS011;7420;53.574;10.040;2023-03-20T17:12:40;13.27;;;8.63;;
14665;SDS011;7420;53.574;10.040;2023-03-20T17:15:08;16.00;;;9.45;;
14665;SDS011;7420;53.574;10.040;2023-03-20T17:17:37;17.75;;;9.35;;
14665;SDS011;7420;53.574;10.040;2023-03-20T17:20:03;17.73;;;10.40;;
14665;SDS011;7420;53.574;10.040;2023-03-20T17:22:28;13.88;;;9.10;;
14665;SDS011;7420;53.574;10.040;2023-03-20T17:24:54;17.27;;;8.85;;
14665;SDS011;7420;53.574;10.040;2023-03-20T17:27:20;15.70;;;9.85;;